sensor_id;sensor_type;location;lat;lon;timestamp;P1;durP1;ratioP1;P2;durP2;ratioP2
43700;SDS011;58809;47.984;7.964;2023-09-19T00:00:09;5.63;;;3.58;;
43700;SDS011;58809;47.984;7.964;2023-09-19T00:03:11;9.20;;;4.03;;
43700;SDS011;58809;47.984;7.964;2023-09-19T00:06:13;5.00;;;3.30;;
43700;SDS011;58809;47.984;7.964;2023-09-19T00:09:15;6.05;;;3.35;;
43700;SDS011;58809;47.984;7.964;2023-09-19T00:12:17;9.85;;;3.90;;
43700;SDS011;58809;47.984;7.964;2023-09-19T00:15:19;11.05;;;4.30;;
43700;SDS011;58809;47.984;7.964;2023-09-19T00:18:21;8.23;;;3.65;;
43700;SDS011;58809;47.984;7.964;2023-09-19T00:21:24;6.32;;;3.78;;
43700;SDS011;58809;47.984;7.964;2023-09-19T00:24:25;5.63;;;3.97;;
43700;SDS011;58809;47.984;7.964;2023-09-19T00:27:29;7.85;;;4.90;;
43700;SDS011;58809;47.984;7.964;2023-09-19T00:30:30;8.85;;;4.20;;
43700;SDS011;58809;47.984;7.964;2023-09-19T00:33:32;8.65;;;4.20;;
43700;SDS011;58809;47.984;7.964;2023-09-19T00:36:34;8.63;;;5.05;;
43700;SDS011;58809;47.984;7.964;2023-09-19T00:39:35;7.70;;;4.35;;
43700;SDS011;58809;47.984;7.964;2023-09-19T00:42:39;8.40;;;5.25;;
43700;SDS011;58809;47.984;7.964;2023-09-19T00:45:42;8.70;;;5.03;;
43700;SDS011;58809;47.984;7.964;2023-09-19T00:48:47;11.80;;;5.25;;
43700;SDS011;58809;47.984;7.964;2023-09-19T00:51:48;7.18;;;4.05;;
43700;SDS011;58809;47.984;7.964;2023-09-19T00:54:50;11.07;;;5.03;;
43700;SDS011;58809;47.984;7.964;2023-09-19T00:57:55;6.97;;;4.40;;
43700;SDS011;58809;47.984;7.964;2023-09-19T01:00:57;8.90;;;4.10;;
43700;SDS011;58809;47.984;7.964;2023-09-19T01:03:58;7.13;;;3.88;;
43700;SDS011;58809;47.984;7.964;2023-09-19T01:07:00;11.73;;;5.10;;
43700;SDS011;58809;47.984;7.964;2023-09-19T01:10:02;8.75;;;4.50;;
43700;SDS011;58809;47.984;7.964;2023-09-19T01:13:16;7.78;;;3.85;;
43700;SDS011;58809;47.984;7.964;2023-09-19T01:16:35;5.47;;;3.95;;
43700;SDS011;58809;47.984;7.964;2023-09-19T01:20:02;11.18;;;3.90;;
43700;SDS011;58809;47.984;7.964;2023-09-19T01:23:17;5.32;;;3.08;;
43700;SDS011;58809;47.984;7.964;2023-09-19T01:30:20;3.35;;;2.10;;
43700;SDS011;58809;47.984;7.964;2023-09-19T01:33:25;5.97;;;3.00;;
43700;SDS011;58809;47.984;7.964;2023-09-19T01:36:34;3.50;;;1.90;;
43700;SDS011;58809;47.984;7.964;2023-09-19T01:39:37;3.10;;;1.42;;
43700;SDS011;58809;47.984;7.964;2023-09-19T01:42:55;5.40;;;2.05;;
43700;SDS011;58809;47.984;7.964;2023-09-19T01:46:06;3.72;;;2.00;;
43700;SDS011;58809;47.984;7.964;2023-09-19T01:49:18;4.15;;;2.30;;
43700;SDS011;58809;47.984;7.964;2023-09-19T01:52:28;2.13;;;1.77;;
43700;SDS011;58809;47.984;7.964;2023-09-19T01:55:36;3.08;;;1.90;;
43700;SDS011;58809;47.984;7.964;2023-09-19T01:58:45;1.98;;;1.58;;
43700;SDS011;58809;47.984;7.964;2023-09-19T02:01:49;3.22;;;2.10;;
43700;SDS011;58809;47.984;7.964;2023-09-19T02:04:54;2.55;;;1.85;;
43700;SDS011;58809;47.984;7.964;2023-09-19T02:07:59;3.03;;;1.70;;
43700;SDS011;58809;47.984;7.964;2023-09-19T02:11:00;1.95;;;1.63;;
43700;SDS011;58809;47.984;7.964;2023-09-19T02:14:02;3.13;;;1.98;;
43700;SDS011;58809;47.984;7.964;2023-09-19T02:17:05;5.07;;;2.57;;
43700;SDS011;58809;47.984;7.964;2023-09-19T02:20:08;2.00;;;1.63;;
43700;SDS011;58809;47.984;7.964;2023-09-19T02:23:11;4.23;;;2.17;;
43700;SDS011;58809;47.984;7.964;2023-09-19T02:26:14;4.10;;;2.00;;
43700;SDS011;58809;47.984;7.964;2023-09-19T02:29:15;4.07;;;2.75;;
43700;SDS011;58809;47.984;7.964;2023-09-19T02:32:17;2.55;;;2.25;;
43700;SDS011;58809;47.984;7.964;2023-09-19T02:35:21;3.10;;;2.17;;
43700;SDS011;58809;47.984;7.964;2023-09-19T02:38:23;3.58;;;2.17;;
43700;SDS011;58809;47.984;7.964;2023-09-19T02:41:27;4.07;;;2.60;;
43700;SDS011;58809;47.984;7.964;2023-09-19T02:44:30;4.03;;;2.53;;
43700;SDS011;58809;47.984;7.964;2023-09-19T02:47:32;9.18;;;2.30;;
43700;SDS011;58809;47.984;7.964;2023-09-19T02:50:34;5.65;;;2.58;;
43700;SDS011;58809;47.984;7.964;2023-09-19T02:53:36;3.60;;;2.58;;
43700;SDS011;58809;47.984;7.964;2023-09-19T02:56:38;3.20;;;2.50;;
43700;SDS011;58809;47.984;7.964;2023-09-19T02:59:40;5.78;;;2.83;;
43700;SDS011;58809;47.984;7.964;2023-09-19T03:02:42;5.25;;;2.63;;
43700;SDS011;58809;47.984;7.964;2023-09-19T03:05:47;10.02;;;3.30;;
43700;SDS011;58809;47.984;7.964;2023-09-19T03:08:55;6.68;;;3.22;;
43700;SDS011;58809;47.984;7.964;2023-09-19T03:11:57;11.35;;;4.72;;
43700;SDS011;58809;47.984;7.964;2023-09-19T03:15:01;5.28;;;3.45;;
43700;SDS011;58809;47.984;7.964;2023-09-19T03:18:06;5.72;;;3.10;;
43700;SDS011;58809;47.984;7.964;2023-09-19T03:21:08;5.47;;;3.00;;
43700;SDS011;58809;47.984;7.964;2023-09-19T03:24:09;7.13;;;3.90;;
43700;SDS011;58809;47.984;7.964;2023-09-19T03:27:13;5.72;;;4.13;;
43700;SDS011;58809;47.984;7.964;2023-09-19T03:30:17;9.27;;;4.18;;
43700;SDS011;58809;47.984;7.964;2023-09-19T03:33:19;5.97;;;3.28;;
43700;SDS011;58809;47.984;7.964;2023-09-19T03:36:21;4.95;;;3.15;;
43700;SDS011;58809;47.984;7.964;2023-09-19T03:39:23;8.88;;;4.57;;
43700;SDS011;58809;47.984;7.964;2023-09-19T03:42:25;6.03;;;3.40;;
43700;SDS011;58809;47.984;7.964;2023-09-19T03:45:28;7.70;;;3.93;;
43700;SDS011;58809;47.984;7.964;2023-09-19T03:48:29;3.88;;;2.70;;
43700;SDS011;58809;47.984;7.964;2023-09-19T03:51:32;7.38;;;3.72;;
43700;SDS011;58809;47.984;7.964;2023-09-19T03:54:36;6.43;;;3.88;;
43700;SDS011;58809;47.984;7.964;2023-09-19T03:57:37;4.53;;;3.30;;
43700;SDS011;58809;47.984;7.964;2023-09-19T04:00:39;6.45;;;3.50;;
43700;SDS011;58809;47.984;7.964;2023-09-19T04:03:41;10.00;;;3.58;;
43700;SDS011;58809;47.984;7.964;2023-09-19T04:06:49;6.20;;;3.70;;
43700;SDS011;58809;47.984;7.964;2023-09-19T04:09:51;7.25;;;3.80;;
43700;SDS011;58809;47.984;7.964;2023-09-19T04:12:55;10.23;;;4.38;;
43700;SDS011;58809;47.984;7.964;2023-09-19T04:15:57;9.57;;;5.00;;
43700;SDS011;58809;47.984;7.964;2023-09-19T04:18:59;10.35;;;5.18;;
43700;SDS011;58809;47.984;7.964;2023-09-19T04:22:00;6.32;;;4.20;;
43700;SDS011;58809;47.984;7.964;2023-09-19T04:25:02;10.65;;;5.28;;
43700;SDS011;58809;47.984;7.964;2023-09-19T04:28:04;7.15;;;5.32;;
43700;SDS011;58809;47.984;7.964;2023-09-19T04:31:07;14.02;;;5.75;;
43700;SDS011;58809;47.984;7.964;2023-09-19T04:34:09;8.10;;;6.00;;
43700;SDS011;58809;47.984;7.964;2023-09-19T04:37:11;9.38;;;5.05;;
43700;SDS011;58809;47.984;7.964;2023-09-19T04:40:17;8.23;;;5.75;;
43700;SDS011;58809;47.984;7.964;2023-09-19T04:43:20;9.90;;;5.57;;
43700;SDS011;58809;47.984;7.964;2023-09-19T04:46:24;7.40;;;5.43;;
43700;SDS011;58809;47.984;7.964;2023-09-19T04:49:26;4.97;;;3.88;;
43700;SDS011;58809;47.984;7.964;2023-09-19T04:52:29;8.98;;;4.82;;
43700;SDS011;58809;47.984;7.964;2023-09-19T04:55:32;9.10;;;6.90;;
43700;SDS011;58809;47.984;7.964;2023-09-19T04:58:34;10.82;;;6.50;;
43700;SDS011;58809;47.984;7.964;2023-09-19T05:01:36;7.20;;;4.00;;
43700;SDS011;58809;47.984;7.964;2023-09-19T05:04:37;9.20;;;4.80;;
43700;SDS011;58809;47.984;7.964;2023-09-19T05:07:40;9.68;;;5.43;;
43700;SDS011;58809;47.984;7.964;2023-09-19T05:10:42;6.78;;;4.35;;
43700;SDS011;58809;47.984;7.964;2023-09-19T05:13:44;4.07;;;2.80;;
43700;SDS011;58809;47.984;7.964;2023-09-19T05:16:46;7.60;;;4.07;;
43700;SDS011;58809;47.984;7.964;2023-09-19T05:19:47;7.28;;;5.22;;
43700;SDS011;58809;47.984;7.964;2023-09-19T05:22:49;9.23;;;4.85;;
43700;SDS011;58809;47.984;7.964;2023-09-19T05:25:51;9.40;;;4.68;;
43700;SDS011;58809;47.984;7.964;2023-09-19T05:28:53;13.32;;;6.18;;
43700;SDS011;58809;47.984;7.964;2023-09-19T05:31:55;7.13;;;4.88;;
43700;SDS011;58809;47.984;7.964;2023-09-19T05:34:56;8.38;;;4.22;;
43700;SDS011;58809;47.984;7.964;2023-09-19T05:37:58;5.80;;;5.18;;
43700;SDS011;58809;47.984;7.964;2023-09-19T05:41:00;5.90;;;3.95;;
43700;SDS011;58809;47.984;7.964;2023-09-19T05:44:03;8.23;;;4.88;;
43700;SDS011;58809;47.984;7.964;2023-09-19T05:47:05;8.10;;;5.70;;
43700;SDS011;58809;47.984;7.964;2023-09-19T05:50:10;7.53;;;4.25;;
43700;SDS011;58809;47.984;7.964;2023-09-19T05:53:11;10.90;;;4.68;;
43700;SDS011;58809;47.984;7.964;2023-09-19T05:56:16;5.45;;;3.70;;
43700;SDS011;58809;47.984;7.964;2023-09-19T05:59:20;3.70;;;3.10;;
43700;SDS011;58809;47.984;7.964;2023-09-19T06:02:21;5.43;;;2.95;;
43700;SDS011;58809;47.984;7.964;2023-09-19T06:05:26;6.35;;;3.67;;
43700;SDS011;58809;47.984;7.964;2023-09-19T06:08:29;4.57;;;3.47;;
43700;SDS011;58809;47.984;7.964;2023-09-19T06:11:32;6.40;;;3.27;;
43700;SDS011;58809;47.984;7.964;2023-09-19T06:17:38;4.22;;;3.20;;
43700;SDS011;58809;47.984;7.964;2023-09-19T06:20:39;5.80;;;2.60;;
43700;SDS011;58809;47.984;7.964;2023-09-19T06:23:45;7.70;;;3.70;;
43700;SDS011;58809;47.984;7.964;2023-09-19T06:26:47;5.53;;;2.80;;
43700;SDS011;58809;47.984;7.964;2023-09-19T06:29:49;4.85;;;3.30;;
43700;SDS011;58809;47.984;7.964;2023-09-19T06:32:57;7.60;;;3.60;;
43700;SDS011;58809;47.984;7.964;2023-09-19T06:35:59;6.47;;;3.58;;
43700;SDS011;58809;47.984;7.964;2023-09-19T06:39:01;6.78;;;4.18;;
43700;SDS011;58809;47.984;7.964;2023-09-19T06:45:07;6.95;;;4.07;;
43700;SDS011;58809;47.984;7.964;2023-09-19T06:48:10;6.82;;;3.20;;
43700;SDS011;58809;47.984;7.964;2023-09-19T06:51:13;7.85;;;3.83;;
43700;SDS011;58809;47.984;7.964;2023-09-19T06:54:17;5.53;;;3.70;;
43700;SDS011;58809;47.984;7.964;2023-09-19T06:57:19;5.30;;;3.83;;
43700;SDS011;58809;47.984;7.964;2023-09-19T07:00:21;7.05;;;4.47;;
43700;SDS011;58809;47.984;7.964;2023-09-19T07:03:23;5.35;;;3.80;;
43700;SDS011;58809;47.984;7.964;2023-09-19T07:06:28;6.75;;;3.75;;
43700;SDS011;58809;47.984;7.964;2023-09-19T07:09:29;5.45;;;3.40;;
43700;SDS011;58809;47.984;7.964;2023-09-19T07:12:31;4.63;;;2.83;;
43700;SDS011;58809;47.984;7.964;2023-09-19T07:15:34;5.35;;;3.20;;
43700;SDS011;58809;47.984;7.964;2023-09-19T07:18:40;5.40;;;3.55;;
43700;SDS011;58809;47.984;7.964;2023-09-19T07:21:42;6.78;;;3.53;;
43700;SDS011;58809;47.984;7.964;2023-09-19T07:24:48;5.20;;;3.10;;
43700;SDS011;58809;47.984;7.964;2023-09-19T07:27:50;9.98;;;3.60;;
43700;SDS011;58809;47.984;7.964;2023-09-19T07:30:52;5.38;;;3.70;;
43700;SDS011;58809;47.984;7.964;2023-09-19T07:33:54;5.30;;;3.35;;
43700;SDS011;58809;47.984;7.964;2023-09-19T07:36:55;5.82;;;3.17;;
43700;SDS011;58809;47.984;7.964;2023-09-19T07:39:57;5.25;;;2.97;;
43700;SDS011;58809;47.984;7.964;2023-09-19T07:42:59;5.40;;;2.78;;
43700;SDS011;58809;47.984;7.964;2023-09-19T07:46:03;5.22;;;3.42;;
43700;SDS011;58809;47.984;7.964;2023-09-19T07:49:08;4.93;;;2.60;;
43700;SDS011;58809;47.984;7.964;2023-09-19T07:52:12;8.52;;;2.92;;
43700;SDS011;58809;47.984;7.964;2023-09-19T07:55:14;4.72;;;3.03;;
43700;SDS011;58809;47.984;7.964;2023-09-19T07:58:21;6.10;;;2.60;;
43700;SDS011;58809;47.984;7.964;2023-09-19T08:01:24;4.82;;;3.33;;
43700;SDS011;58809;47.984;7.964;2023-09-19T08:04:26;5.65;;;2.75;;
43700;SDS011;58809;47.984;7.964;2023-09-19T08:07:29;4.53;;;2.72;;
43700;SDS011;58809;47.984;7.964;2023-09-19T08:10:31;4.25;;;3.03;;
43700;SDS011;58809;47.984;7.964;2023-09-19T08:13:37;4.20;;;2.78;;
43700;SDS011;58809;47.984;7.964;2023-09-19T08:16:44;5.30;;;2.90;;
43700;SDS011;58809;47.984;7.964;2023-09-19T08:19:46;6.57;;;3.17;;
43700;SDS011;58809;47.984;7.964;2023-09-19T08:22:48;6.18;;;2.92;;
43700;SDS011;58809;47.984;7.964;2023-09-19T08:25:57;4.10;;;2.72;;
43700;SDS011;58809;47.984;7.964;2023-09-19T08:28:59;9.10;;;2.83;;
43700;SDS011;58809;47.984;7.964;2023-09-19T08:32:07;3.45;;;2.30;;
43700;SDS011;58809;47.984;7.964;2023-09-19T08:35:09;3.40;;;2.83;;
43700;SDS011;58809;47.984;7.964;2023-09-19T08:38:14;3.88;;;2.88;;
43700;SDS011;58809;47.984;7.964;2023-09-19T08:41:16;4.20;;;2.65;;
43700;SDS011;58809;47.984;7.964;2023-09-19T08:44:18;4.45;;;2.58;;
43700;SDS011;58809;47.984;7.964;2023-09-19T08:47:24;3.88;;;2.55;;
43700;SDS011;58809;47.984;7.964;2023-09-19T08:50:43;3.40;;;2.35;;
43700;SDS011;58809;47.984;7.964;2023-09-19T08:53:58;3.05;;;2.38;;
43700;SDS011;58809;47.984;7.964;2023-09-19T08:57:07;3.95;;;2.58;;
43700;SDS011;58809;47.984;7.964;2023-09-19T09:00:15;6.63;;;2.95;;
43700;SDS011;58809;47.984;7.964;2023-09-19T09:03:22;5.68;;;2.28;;
43700;SDS011;58809;47.984;7.964;2023-09-19T09:06:25;5.00;;;2.40;;
43700;SDS011;58809;47.984;7.964;2023-09-19T09:09:28;4.10;;;2.63;;
43700;SDS011;58809;47.984;7.964;2023-09-19T09:12:30;4.80;;;3.42;;
43700;SDS011;58809;47.984;7.964;2023-09-19T09:15:34;5.00;;;2.55;;
43700;SDS011;58809;47.984;7.964;2023-09-19T09:18:37;3.28;;;2.20;;
43700;SDS011;58809;47.984;7.964;2023-09-19T09:21:39;5.03;;;2.42;;
43700;SDS011;58809;47.984;7.964;2023-09-19T09:24:53;3.22;;;2.33;;
43700;SDS011;58809;47.984;7.964;2023-09-19T09:27:59;5.05;;;2.60;;
43700;SDS011;58809;47.984;7.964;2023-09-19T09:31:04;3.35;;;2.65;;
43700;SDS011;58809;47.984;7.964;2023-09-19T09:34:10;5.38;;;2.80;;
43700;SDS011;58809;47.984;7.964;2023-09-19T09:37:17;8.50;;;3.13;;
43700;SDS011;58809;47.984;7.964;2023-09-19T09:40:23;4.70;;;2.60;;
43700;SDS011;58809;47.984;7.964;2023-09-19T09:43:46;5.18;;;2.80;;
43700;SDS011;58809;47.984;7.964;2023-09-19T09:46:48;6.43;;;3.00;;
43700;SDS011;58809;47.984;7.964;2023-09-19T09:49:50;3.90;;;2.45;;
43700;SDS011;58809;47.984;7.964;2023-09-19T09:52:56;5.03;;;2.90;;
43700;SDS011;58809;47.984;7.964;2023-09-19T09:56:08;4.63;;;2.67;;
43700;SDS011;58809;47.984;7.964;2023-09-19T09:59:11;3.97;;;2.55;;
43700;SDS011;58809;47.984;7.964;2023-09-19T10:02:19;4.20;;;2.60;;
43700;SDS011;58809;47.984;7.964;2023-09-19T10:05:27;6.97;;;3.10;;
43700;SDS011;58809;47.984;7.964;2023-09-19T10:08:29;6.03;;;2.65;;
43700;SDS011;58809;47.984;7.964;2023-09-19T10:11:32;3.95;;;2.50;;
43700;SDS011;58809;47.984;7.964;2023-09-19T10:14:37;5.15;;;3.03;;
43700;SDS011;58809;47.984;7.964;2023-09-19T10:17:39;4.32;;;2.92;;
43700;SDS011;58809;47.984;7.964;2023-09-19T10:20:45;5.28;;;2.50;;
43700;SDS011;58809;47.984;7.964;2023-09-19T10:23:48;3.63;;;2.53;;
43700;SDS011;58809;47.984;7.964;2023-09-19T10:26:53;2.55;;;2.15;;
43700;SDS011;58809;47.984;7.964;2023-09-19T10:29:56;4.32;;;2.67;;
43700;SDS011;58809;47.984;7.964;2023-09-19T10:33:01;3.92;;;2.33;;
43700;SDS011;58809;47.984;7.964;2023-09-19T10:36:05;4.90;;;2.75;;
43700;SDS011;58809;47.984;7.964;2023-09-19T10:39:06;3.65;;;2.33;;
43700;SDS011;58809;47.984;7.964;2023-09-19T10:42:10;5.40;;;2.83;;
43700;SDS011;58809;47.984;7.964;2023-09-19T10:45:18;5.63;;;2.88;;
43700;SDS011;58809;47.984;7.964;2023-09-19T10:48:21;5.60;;;2.90;;
43700;SDS011;58809;47.984;7.964;2023-09-19T10:51:31;5.47;;;2.40;;
43700;SDS011;58809;47.984;7.964;2023-09-19T10:54:41;2.78;;;2.30;;
43700;SDS011;58809;47.984;7.964;2023-09-19T10:57:50;3.10;;;2.78;;
43700;SDS011;58809;47.984;7.964;2023-09-19T11:04:20;3.63;;;2.30;;
43700;SDS011;58809;47.984;7.964;2023-09-19T11:07:25;5.13;;;3.17;;
43700;SDS011;58809;47.984;7.964;2023-09-19T11:14:13;5.35;;;3.08;;
43700;SDS011;58809;47.984;7.964;2023-09-19T11:17:35;4.40;;;3.25;;
43700;SDS011;58809;47.984;7.964;2023-09-19T11:20:43;4.22;;;2.80;;
43700;SDS011;58809;47.984;7.964;2023-09-19T11:27:28;4.95;;;2.50;;
43700;SDS011;58809;47.984;7.964;2023-09-19T11:30:34;3.15;;;2.50;;
43700;SDS011;58809;47.984;7.964;2023-09-19T11:33:38;3.50;;;2.90;;
43700;SDS011;58809;47.984;7.964;2023-09-19T11:36:42;5.25;;;3.00;;
43700;SDS011;58809;47.984;7.964;2023-09-19T11:40:05;2.85;;;2.53;;
43700;SDS011;58809;47.984;7.964;2023-09-19T11:43:29;6.45;;;3.00;;
43700;SDS011;58809;47.984;7.964;2023-09-19T11:46:33;3.42;;;2.30;;
43700;SDS011;58809;47.984;7.964;2023-09-19T11:49:35;4.22;;;2.67;;
43700;SDS011;58809;47.984;7.964;2023-09-19T11:52:42;4.72;;;3.10;;
43700;SDS011;58809;47.984;7.964;2023-09-19T11:55:45;3.15;;;2.83;;
43700;SDS011;58809;47.984;7.964;2023-09-19T11:58:48;2.95;;;2.72;;
43700;SDS011;58809;47.984;7.964;2023-09-19T12:01:57;5.60;;;3.17;;
43700;SDS011;58809;47.984;7.964;2023-09-19T12:05:02;3.10;;;2.70;;
43700;SDS011;58809;47.984;7.964;2023-09-19T12:08:04;4.47;;;3.00;;
43700;SDS011;58809;47.984;7.964;2023-09-19T12:11:13;4.10;;;2.83;;
43700;SDS011;58809;47.984;7.964;2023-09-19T12:14:23;2.92;;;2.65;;
43700;SDS011;58809;47.984;7.964;2023-09-19T12:17:36;5.15;;;3.00;;
43700;SDS011;58809;47.984;7.964;2023-09-19T12:20:43;3.55;;;2.58;;
43700;SDS011;58809;47.984;7.964;2023-09-19T12:24:24;5.22;;;3.10;;
43700;SDS011;58809;47.984;7.964;2023-09-19T12:27:20;3.70;;;2.92;;
43700;SDS011;58809;47.984;7.964;2023-09-19T12:30:27;3.75;;;2.85;;
43700;SDS011;58809;47.984;7.964;2023-09-19T12:33:30;4.05;;;2.58;;
43700;SDS011;58809;47.984;7.964;2023-09-19T12:39:35;5.75;;;2.50;;
43700;SDS011;58809;47.984;7.964;2023-09-19T12:42:37;4.85;;;2.78;;
43700;SDS011;58809;47.984;7.964;2023-09-19T12:45:40;3.17;;;2.67;;
43700;SDS011;58809;47.984;7.964;2023-09-19T12:48:44;3.00;;;2.70;;
43700;SDS011;58809;47.984;7.964;2023-09-19T12:51:49;2.45;;;2.25;;
43700;SDS011;58809;47.984;7.964;2023-09-19T12:54:56;3.55;;;2.83;;
43700;SDS011;58809;47.984;7.964;2023-09-19T12:57:59;3.97;;;2.60;;
43700;SDS011;58809;47.984;7.964;2023-09-19T13:01:11;3.13;;;2.83;;
43700;SDS011;58809;47.984;7.964;2023-09-19T13:04:17;2.85;;;2.65;;
43700;SDS011;58809;47.984;7.964;2023-09-19T13:07:39;4.05;;;2.70;;
43700;SDS011;58809;47.984;7.964;2023-09-19T13:14:21;4.50;;;2.78;;
43700;SDS011;58809;47.984;7.964;2023-09-19T13:20:55;2.67;;;2.47;;
43700;SDS011;58809;47.984;7.964;2023-09-19T13:24:25;2.13;;;1.98;;
43700;SDS011;58809;47.984;7.964;2023-09-19T13:27:31;2.50;;;2.30;;
43700;SDS011;58809;47.984;7.964;2023-09-19T13:30:32;3.55;;;2.13;;
43700;SDS011;58809;47.984;7.964;2023-09-19T13:33:48;2.65;;;2.45;;
43700;SDS011;58809;47.984;7.964;2023-09-19T13:36:51;3.05;;;2.47;;
43700;SDS011;58809;47.984;7.964;2023-09-19T13:39:53;2.80;;;2.50;;
43700;SDS011;58809;47.984;7.964;2023-09-19T13:42:55;3.17;;;2.70;;
43700;SDS011;58809;47.984;7.964;2023-09-19T13:45:56;3.03;;;2.72;;
43700;SDS011;58809;47.984;7.964;2023-09-19T13:52:01;3.70;;;2.53;;
43700;SDS011;58809;47.984;7.964;2023-09-19T13:55:05;2.15;;;1.95;;
43700;SDS011;58809;47.984;7.964;2023-09-19T13:58:08;2.60;;;2.40;;
43700;SDS011;58809;47.984;7.964;2023-09-19T14:01:12;5.20;;;2.60;;
43700;SDS011;58809;47.984;7.964;2023-09-19T14:04:14;2.17;;;2.00;;
43700;SDS011;58809;47.984;7.964;2023-09-19T14:07:16;2.78;;;2.55;;
43700;SDS011;58809;47.984;7.964;2023-09-19T14:10:19;2.38;;;2.17;;
43700;SDS011;58809;47.984;7.964;2023-09-19T14:13:22;2.13;;;1.92;;
43700;SDS011;58809;47.984;7.964;2023-09-19T14:16:23;2.80;;;2.60;;
43700;SDS011;58809;47.984;7.964;2023-09-19T14:19:26;3.13;;;2.33;;
43700;SDS011;58809;47.984;7.964;2023-09-19T14:22:29;3.97;;;2.42;;
43700;SDS011;58809;47.984;7.964;2023-09-19T14:25:35;3.55;;;2.80;;
43700;SDS011;58809;47.984;7.964;2023-09-19T14:28:39;4.05;;;2.50;;
43700;SDS011;58809;47.984;7.964;2023-09-19T14:31:42;2.20;;;2.00;;
43700;SDS011;58809;47.984;7.964;2023-09-19T14:34:43;2.60;;;2.30;;
43700;SDS011;58809;47.984;7.964;2023-09-19T14:37:45;5.57;;;2.33;;
43700;SDS011;58809;47.984;7.964;2023-09-19T14:40:47;2.27;;;1.80;;
43700;SDS011;58809;47.984;7.964;2023-09-19T14:43:51;2.33;;;2.15;;
43700;SDS011;58809;47.984;7.964;2023-09-19T14:46:53;4.15;;;2.60;;
43700;SDS011;58809;47.984;7.964;2023-09-19T14:52:57;3.08;;;2.78;;
43700;SDS011;58809;47.984;7.964;2023-09-19T14:56:03;2.67;;;2.38;;
43700;SDS011;58809;47.984;7.964;2023-09-19T14:59:06;2.17;;;1.98;;
43700;SDS011;58809;47.984;7.964;2023-09-19T15:02:09;2.70;;;2.50;;
43700;SDS011;58809;47.984;7.964;2023-09-19T15:05:10;2.95;;;2.70;;
43700;SDS011;58809;47.984;7.964;2023-09-19T15:08:12;3.25;;;2.88;;
43700;SDS011;58809;47.984;7.964;2023-09-19T15:11:15;3.40;;;2.78;;
43700;SDS011;58809;47.984;7.964;2023-09-19T15:14:20;2.65;;;2.45;;
43700;SDS011;58809;47.984;7.964;2023-09-19T15:17:22;2.47;;;2.25;;
43700;SDS011;58809;47.984;7.964;2023-09-19T15:20:26;3.88;;;3.00;;
43700;SDS011;58809;47.984;7.964;2023-09-19T15:23:28;2.45;;;2.25;;
43700;SDS011;58809;47.984;7.964;2023-09-19T15:26:33;3.00;;;2.70;;
43700;SDS011;58809;47.984;7.964;2023-09-19T15:29:34;2.60;;;2.40;;
43700;SDS011;58809;47.984;7.964;2023-09-19T15:32:36;3.35;;;2.70;;
43700;SDS011;58809;47.984;7.964;2023-09-19T15:35:38;4.78;;;2.65;;
43700;SDS011;58809;47.984;7.964;2023-09-19T15:38:59;3.30;;;2.97;;
43700;SDS011;58809;47.984;7.964;2023-09-19T15:42:07;3.25;;;2.95;;
43700;SDS011;58809;47.984;7.964;2023-09-19T15:45:09;3.63;;;2.63;;
43700;SDS011;58809;47.984;7.964;2023-09-19T15:48:11;2.97;;;2.40;;
43700;SDS011;58809;47.984;7.964;2023-09-19T15:51:13;2.47;;;2.20;;
43700;SDS011;58809;47.984;7.964;2023-09-19T15:54:16;2.10;;;1.90;;
43700;SDS011;58809;47.984;7.964;2023-09-19T15:57:18;3.72;;;2.60;;
43700;SDS011;58809;47.984;7.964;2023-09-19T16:00:20;5.93;;;2.80;;
43700;SDS011;58809;47.984;7.964;2023-09-19T16:03:22;2.75;;;2.20;;
43700;SDS011;58809;47.984;7.964;2023-09-19T16:06:29;2.97;;;2.00;;
43700;SDS011;58809;47.984;7.964;2023-09-19T16:09:32;3.95;;;2.33;;
43700;SDS011;58809;47.984;7.964;2023-09-19T16:12:35;3.63;;;2.47;;
43700;SDS011;58809;47.984;7.964;2023-09-19T16:15:41;3.30;;;2.63;;
43700;SDS011;58809;47.984;7.964;2023-09-19T16:18:47;2.78;;;2.42;;
43700;SDS011;58809;47.984;7.964;2023-09-19T16:21:49;4.05;;;2.50;;
43700;SDS011;58809;47.984;7.964;2023-09-19T16:24:50;4.15;;;2.40;;
43700;SDS011;58809;47.984;7.964;2023-09-19T16:27:52;5.78;;;2.55;;
43700;SDS011;58809;47.984;7.964;2023-09-19T16:30:53;4.00;;;2.20;;
43700;SDS011;58809;47.984;7.964;2023-09-19T16:33:59;4.78;;;2.80;;
43700;SDS011;58809;47.984;7.964;2023-09-19T16:37:01;3.38;;;2.40;;
43700;SDS011;58809;47.984;7.964;2023-09-19T16:40:04;5.73;;;2.30;;
43700;SDS011;58809;47.984;7.964;2023-09-19T16:43:07;4.20;;;2.33;;
43700;SDS011;58809;47.984;7.964;2023-09-19T16:46:10;3.55;;;2.65;;
43700;SDS011;58809;47.984;7.964;2023-09-19T16:49:13;4.32;;;2.55;;
43700;SDS011;58809;47.984;7.964;2023-09-19T16:52:16;2.47;;;2.20;;
43700;SDS011;58809;47.984;7.964;2023-09-19T16:55:17;5.90;;;2.83;;
43700;SDS011;58809;47.984;7.964;2023-09-19T16:58:22;5.22;;;2.70;;
43700;SDS011;58809;47.984;7.964;2023-09-19T17:01:23;2.85;;;1.88;;
43700;SDS011;58809;47.984;7.964;2023-09-19T17:04:26;4.30;;;2.22;;
43700;SDS011;58809;47.984;7.964;2023-09-19T17:07:30;7.28;;;2.83;;
43700;SDS011;58809;47.984;7.964;2023-09-19T17:10:34;3.58;;;2.45;;
43700;SDS011;58809;47.984;7.964;2023-09-19T17:13:36;5.03;;;2.60;;
43700;SDS011;58809;47.984;7.964;2023-09-19T17:16:38;6.60;;;2.72;;
43700;SDS011;58809;47.984;7.964;2023-09-19T17:19:40;5.43;;;2.28;;
43700;SDS011;58809;47.984;7.964;2023-09-19T17:22:42;5.57;;;2.58;;
43700;SDS011;58809;47.984;7.964;2023-09-19T17:25:44;4.05;;;2.28;;
43700;SDS011;58809;47.984;7.964;2023-09-19T17:28:46;3.22;;;2.63;;
43700;SDS011;58809;47.984;7.964;2023-09-19T17:31:48;5.45;;;2.70;;
43700;SDS011;58809;47.984;7.964;2023-09-19T17:34:51;4.78;;;2.78;;
43700;SDS011;58809;47.984;7.964;2023-09-19T17:37:53;6.13;;;2.90;;
43700;SDS011;58809;47.984;7.964;2023-09-19T17:40:55;4.00;;;2.42;;
43700;SDS011;58809;47.984;7.964;2023-09-19T17:43:58;4.68;;;2.63;;
43700;SDS011;58809;47.984;7.964;2023-09-19T17:47:00;4.90;;;2.42;;
43700;SDS011;58809;47.984;7.964;2023-09-19T17:50:02;4.80;;;2.70;;
43700;SDS011;58809;47.984;7.964;2023-09-19T17:53:05;5.78;;;2.72;;
43700;SDS011;58809;47.984;7.964;2023-09-19T17:56:07;5.32;;;2.95;;
43700;SDS011;58809;47.984;7.964;2023-09-19T18:02:13;5.55;;;3.30;;
43700;SDS011;58809;47.984;7.964;2023-09-19T18:05:15;4.93;;;3.10;;
43700;SDS011;58809;47.984;7.964;2023-09-19T18:08:17;6.13;;;3.53;;
43700;SDS011;58809;47.984;7.964;2023-09-19T18:11:22;4.97;;;3.20;;
43700;SDS011;58809;47.984;7.964;2023-09-19T18:14:28;4.55;;;3.10;;
43700;SDS011;58809;47.984;7.964;2023-09-19T18:17:33;4.72;;;3.10;;
43700;SDS011;58809;47.984;7.964;2023-09-19T18:20:37;5.22;;;3.75;;
43700;SDS011;58809;47.984;7.964;2023-09-19T18:26:42;5.18;;;3.25;;
43700;SDS011;58809;47.984;7.964;2023-09-19T18:29:44;5.25;;;3.10;;
43700;SDS011;58809;47.984;7.964;2023-09-19T18:32:47;5.90;;;3.33;;
43700;SDS011;58809;47.984;7.964;2023-09-19T18:36:00;6.88;;;4.03;;
43700;SDS011;58809;47.984;7.964;2023-09-19T18:39:03;4.95;;;3.50;;
43700;SDS011;58809;47.984;7.964;2023-09-19T18:42:05;6.15;;;4.10;;
43700;SDS011;58809;47.984;7.964;2023-09-19T18:45:07;8.43;;;4.10;;
43700;SDS011;58809;47.984;7.964;2023-09-19T18:48:15;5.10;;;3.30;;
43700;SDS011;58809;47.984;7.964;2023-09-19T18:51:17;8.40;;;3.58;;
43700;SDS011;58809;47.984;7.964;2023-09-19T18:54:19;5.38;;;2.97;;
43700;SDS011;58809;47.984;7.964;2023-09-19T18:57:21;4.00;;;2.80;;
43700;SDS011;58809;47.984;7.964;2023-09-19T19:00:22;10.10;;;3.50;;
43700;SDS011;58809;47.984;7.964;2023-09-19T19:03:27;4.95;;;3.30;;
43700;SDS011;58809;47.984;7.964;2023-09-19T19:06:29;4.20;;;2.97;;
43700;SDS011;58809;47.984;7.964;2023-09-19T19:09:31;6.72;;;3.17;;
43700;SDS011;58809;47.984;7.964;2023-09-19T19:12:33;4.50;;;3.28;;